Воздушный грунтовый теплообменник: Грунтовый теплообменник: принцип работы и эффективность

Воздушный грунтовый коллектор — Энергоэффективный дом

Воздушный грунтовый теплообменник

Много написано про предварительный подогрев входящего воздуха через трубы в земле — геотермальные воздушные коллекторы. На зарубежных сайтах, где это давно применяется, сильно не рекомендуется дышать воздухом, который прошел через эти трубы. Только через теплообменник.

На forumhouse.ru   есть опыт использования грунтового воздушного теплообменника для предварительного подогрева воздуха для печи или камина. Вроде опыт положительный. Много только возни с конденсатом, да и эффективность теплообмена в воздушном теплообменнике низкая. Использование без специального теплообменника для охлаждения невозможно (по той же причине разделения воздуха из трубы и для дома). А если мы ставим теплообменник, то уже можно подумать о жидкостном грунтовом теплообменнике и фанкойлах.

Грунтовый воздушный теплообменник

http://vents.ua/cat/468/

Краткий расчет: http://vents.ua/cat/energy-saving-geo/

Что это такое

(Источник): Это просто труба которая закопана в землю, т. к. температура грунта достаточна стабильна, то летом воздух проходя через трубу охлаждается, зимой нагревается.

 

Труба имеет определенный диаметр и длину, стенки трубы внутри должны быть гладкие, для более легко прохождения воздуха, а также труба должна лежать под уклоном, для сбора конденсата в летнее время.

Схема ВГТ.

 

 

Примерная схема — как здесь #4

Воздушный ГК от sim1

Грунтовый воздушный теплообменник, реализуемый под Выборгом-3

#33 Выводы:
1. Глубина заложения теплообменника — от 2м
2. При малой скорости потока воздух успевает достаточно прогреться. При увеличении скорости в 2 раза, полагаю, нужно мін.в 2 раза увеличить протяженность теплообменника. Скорость-1.2-2.5м/с max
3. Увеличение сечения теплообменника дает большую площадь и позволяет уменьшить скорость движения воздуха. Полагаю труба 200мм может оказаться довольно еффективной
4. В идеале использовать 2 ветки теплообменника, переключать их по очереди через каждые 12 часов или чередовать периоды работьі и отдыха.
5. При температуре воздуха от 15 до 24 градусов производить забор воздуха минуя грунтовый теплообменник
6. для п. 3 и 4 исп. автоматику переключающую каналы исп. автоматические клапаны, реле времени и температурные датчики
7. на выходе из теплообменника использовать 10-15м антибактерицидной трубы Rehau (специально спроектированной для построение подобных теплообменников, проект — AWADUKT Termo, там же можно найти программу рассчитывающую эффективность теплообменника)
8. Теплообменник располагать с наклоном в сторону конденсационного колодца (вертикальная труба 250-315mm, в которую встроить дренажный насос)
9. Все повороты делать по 45градусов, минимизируя их кол-во по возможности

Открытыми остались вопросы о количестве и схеме сбора конденсата и данные по бактериям (а также метод (ы) очистки/дезинфекции теплообменника)

Измерения проводились на 60й параллели
Труба канализационная д=110х3,0
Скорость воздуха 1,2 м/cek
Длина трубопровода в грунте =18м
Глубина залегания =3м.
Мощность вентилятора =35W
Площадь теплообменника =6.2m2
Продуктивность системы =34м3/ч

Вентилятор работает в периоде, от 11до21 часа (10часов — 340m3/сутки)

По летнему режиму: Июнь. При Тнар.=28гр, температура грунта =13гр; температура на выходе из трубы = 14гр

08.12.2008 -4.0 4.0 8.0
09.12.2008 -4.0 4.0 8.0
10.12.2008 -6.0 4.0 10.0
11.12.2008 -1.0 5.0 6.0
12.12.2008 -1.0 5.0 6.0
13.12.2008 -1.0 5.0 6.0
14.12.2008 -3.0 5.0 8.0
15.12.2008 -8.0 4.0 12.0
16.12.2008 -8.0 4.0 12.0
17.12.2008 -8. 0 4.0 12.0
18.12.2008 -2.0 4.5 6.5
19.12.2008 -2.0 4.0 6.0
20.12.2008 -2.0 5.0 7.0
21.12.2008 -2.0 4.5 6.5
22.12.2008 -3.0 4.5 7.5
23.12.2008 -3.0 4.0 7.0
24.12.2008 -4.0 4.0 8.0
25.12.2008 -6.0 4.0 10.0
26.12.2008 -2.0 4.0 6.0
27.12.2008 -6.0 2.0 8.0
28.12.2008 -5.0 3.0 8.0
29.12.2008 +0.0 3.5 3.5
30.12.2008 -1.0 3.5 4.5
31.12.2008 -4.0 4.0 8.0
01. 01.2009 -8.0 2.0 10.0
02.01.2009 -15.0 0.0 15.0
03.01.2009 -12.0 1.0 13.0
04.01.2009 -17.0 0.0 17.0
05.01.2009 -17.0 0.0 17.0
06.01.2009 -2.0 2.0 4.0
07.01.2009 -22.0 0.0 22.0
08.01.2009 -28.0 -1.0 27.0
09.01.2009 -8.0 1.0 9.0
10.01.2009 -3.0 2.0 5.0
11.01.2009 +2.0 2.5 0.5
12.01.2009 +3.0 3.0 0.0
13.01.2009 +1.0 3.0 2.0
14.01.2009 +2.0 4.0 2.0
15.01.2009 -2.0 2. 0 4.0
16.01.2009 -7.0 2.5 9.5
17.01.2009 -5.0 2.5 7.5
18.01.2009 -5.0 2.5 7.5
19.01.2009 -5.0 2.5 7.5
20.01.2009 -5.0 2.5 7.5
21.01.2009 -3.0 2.5 5.5
22.01.2009 -1.0 3.0 4.0
23.01.2009 -1.0 3.0 4.0
24.01.2009 -1.0 3.0 4.0
25.01.2009 +0.0 3.0 3.0
26.01.2009 +1.0 2.5 1.5
27.01.2009 +1.0 3.5 2.5
28.01.2009 +0.0 3.5 3.5
29.01.2009 -2.0 3.0 5.0
30. 01.2009 -12.0 1.5 13.5
31.01.2009 -20.0 0.0 20.0
01.02.2009 -10.0 0.0 10.0
02.02.2009 -4.0 1.0 5.0
03.02.2009 -5.0 1.5 6.5
04.02.2009 -6.0 1.0 7.0
05.02.2009 -4.0 1.0 5.0
06.02.2009 -6.0 1.0 7.0
07.02.2009 -1.0 2.5 3.5
08.02.2009 +2.0 3.0 1.0
09.02.2009 -1.0 3.0 4.0
10.02.2009 -4.0 2.0 6.0
11.02.2009 -4.0 2.0 6.0
12.02.2009 -5.0 2.0 7.0
13.02.2009 -1.0 2. 5 3.5
14.02.2009 -4.0 2.5 6.5
15.02.2009 -5.0 1.5 6.5
16.02.2009 -5.0 2.0 7.0
17.02.2009 -4.0 1.5 5.5
18.02.2009 -5.0 1.5 6.5
19.02.2009 -8.0 1.5 9.5
20.02.2009 -6.0 1.5 7.5
21.02.2009 -4.0 2.0 6.0
22.02.2009 -7.0 1.5 8.5
23.02.2009 -6.0 1.5 7.5
24.02.2009 -6.0 1.5 7.5
25.02.2009 -4.0 1.5 5.5
26.02.2009 +0.0 2.5 2.5
27.02.2009 +1.0 3.0 2.0
28. 02.2009 +1.0 3.0 2.0
01.03.2009 -4.0 2.0 6.0
02.03.2009 -3.0 2.0 5.0
03.03.2009 -2.0 2.0 4.0
04.03.2009 -1.0 2.5 3.5
05.03.2009 -2.0 2.5 4.5
06.03.2009 -3.0 2.8 5.8
07.03.2009 -3.0 2.5 5.5
08.03.2009 -6.0 2.5 8.5
09.03.2009 -2.0 3.0 5.0
10.03.2009 +0.0 2.8 2.8
11.03.2009 -4.0 2.5 6.5
12.03.2009 -4.0 2.5 6.5
13.03.2009 -3.0 2.0 5.0
14.03.2009 -6.0 2.0 8. 0
15.03.2009 -5.0 2.0 7.0
16.03.2009 -1.0 2.5 3.5
17.03.2009 +0.0 2.5 2.5
18.03.2009 +0.0 3.0 3.0
19.03.2009 -1.0 2.5 3.5
20.03.2009 -1.0 1.0 2.0
21.03.2009 -4.0 3.0 7.0
22.03.2009 -4.0 2.0 6.0
23.03.2009 -5.0 2.0 7.0
24.03.2009 -3.0 2.0 5.0
25.03.2009 -3.0 2.0 5.0
26.03.2009 -9.0 1.0 10.0
27.03.2009 -7.0 2.0 9.0
28.03.2009 +3.0 3.0 0.0
29.03.2009 +3. 0 4.0 1.0
30.03.2009 +2.0 3.0 1.0
31.03.2009 +2.0 3.0 1.0

Сколько требуется воздуха для сгорания одной закладки дров.
Объем воздуха для активного горения 5 кг ~ более 50 м3
Получается оптимальная ситуация: одна загрузка печи + ~50 м3 подогретого воздуха из грунтового теплообменника + проветривание в достатке по всему дому.

Как решен узел забора конденсата и определение уровня воды БЕЗ автоматики.
На рисунке вертикальная труба 3 метра с съемной сверху крышкой на уплотнителе. Оптимальное наполнение до точки «б» это рабочее состояния ГТ, однако как только наполнение произойдет до точки «а» движение воздуха станет затруднено или полностью прекратиться, что станет «сигналом» для откачки конденсата. При этом вода не попадет в приемную трубу расположенную выше.http://www.forumhouse.ru/threads/70670/page-5#post-1877643

Таблетки специально предназначенные для дезинфекции трубы ГТ
По запаху очень похоже на хлорамин. только не так резко пахнет. Обработка ГТ методом заполнения дизраствором на несколько часов.

Грунтовый воздушный теплообменник, цена , теплообменники от «ТД КОМТЕХ»

Торговый дом «Комтех» осуществляет поставку всего спектра промышленного тепловентиляционного оборудования.

 

В ассортименте более 1000 наименований: осевые и радиальные вентиляторы, тягодутьевые машины, крышные вентиляторы, водяные, паровые и электрические калориферы, воздушно-отопительные агрегаты, тепловые завесы и комплектующие к ним.

 

Вся продукция находится в наличии на нашем складе и может быть доставлена в любой регион России в кратчайшие сроки.

 

Мы гарантируем высокое качество наших изделий, подтвержденное сертификатами соответствия, и выгодные цены, как для оптовых, так и для розничных покупателей. Возможна отсрочка платежа!

 

Для получения консультации специалиста звоните по телефону +7 (343) 213-08-50

 

Вентиляционное оборудование:

Вентиляторы низкого давления

Тягодутьевые машины

Вентиляторы осевые

 

 

Вентиляторы радиальные пылевые

Вентиляторы радиальные среднего давления

Вентиляторы крышные ВКР, ВКРМ

Вентиляторы для дымоудаления

Вентиляторы высокого давления

 

Маслоохладители

 

Теплообменное оборудование:

Калориферы КСк, КПСк

Электрокалориферы

Отопительное оборудование

Агрегаты воздушно-отопительные

 

Теплообменники базовые

Установки воздухонагревательныеВУ

Завесы тепловые

 

 

 

Агрегаты электрокалориферные

 

Шкафы управления электрокалориферными
агрегатами

 

Вам требуется поставка надежного теплообменного или вентиляционного промышленного оборудования? Ищете выгодные условия? Хотите получить заказ точно в срок?

 

Тогда звоните по телефону +7 (343) 213-08-50. Будем рады помочь Вам!

 

Наши преимущества

  • Наличие более 1000 видов вентиляционного и теплового оборудования на складе Екатеринбурга.
  • Выгодные цены, сравнимые с ценами конкурентов.
  • Доставка по всем регионам Российской Федерации.
  • Рассмотрение заявок в короткие сроки и своевременная доставка заказа.
  • Дополнительные скидки на покупки оптом, в зависимости от объема товара, и отсрочку платежа.
  • Качество товара гарантировано, предоставляется вся необходимая документация.

 

 

Товар в наличии на складе

Высокое качество 

Оперативная доставка

Скидки оптовикам

 

Схема работы

 

Вы отправляете заявку
Мы выставляем Вам счет
Вы оплачиваете покупку удобным для Вас способом 
Получаете свой товар

 

Теплообменник земля-воздух

  • Дом
  • Теплообменник земля-воздух

Техническая помощь

Тел. +33 (0) 3 83 80 78 08

[email protected]

КАК ЭТО РАБОТАЕТ?

Теплообменник «земля-воздух» (EAHX) представляет собой поверхностное геотермическое решение для зданий, состоящее из системы подземных труб, обеспечивающих циркуляцию свежего воздуха. Он направлен на подогрев свежего воздуха в зданиях зимой и его охлаждение летом. Основанное на тепловом обмене воздух-земля, это пассивное решение. Установленный теплообменник «земля-воздух» принимает активное участие в обеспечении теплового комфорта в здании. ELIXAIR® by PAM — это комплексное предложение, предназначенное для создания EAHX «земля-воздух», сочетающее безопасность и эффективность с изделиями из ковкого чугуна.

Рекомендуемое использование

Общественные здания

Коммерческие и промышленные здания

Фермерские здания

Основные преимущества

  • Система по французскому техническому утверждению 14/14-2056 CSTB
  • Экономия энергии благодаря полной системе и высокой теплопроводности ковкого чугуна
  • Устойчивость к грунтовым и транспортным нагрузкам: системы труб из ковкого чугуна можно без повреждений прокладывать глубоко, а также под проезжей частью или на парковках
  • Выдерживает рустикальные условия укладки, допускающие обратную засыпку извлеченными материалами
  • Превосходная герметичность благодаря муфтам Express или Standard, работающим под сжатием
  • Долговечность: как и для всех подземных систем, прочность и долговечность являются ключевыми факторами, позволяющими избежать преждевременной замены.

ОСНОВНЫЕ ПРЕИМУЩЕСТВА

  • Система с французским техническим одобрением 14/14-2056 CSTB
  • Экономия энергии благодаря комплексной системе и высокой теплопроводности ковкого чугуна
  • Устойчивость к грунтовым и транспортным нагрузкам: системы труб из ковкого чугуна можно без повреждений прокладывать глубоко, а также под проезжей частью или на парковках
  • Выдерживает рустикальные условия укладки, допускающие обратную засыпку извлеченными материалами
  • Превосходная герметичность благодаря муфтам Express или Standard, работающим под сжатием
  • Долговечность: как и для всех подземных систем, прочность и долговечность являются ключевыми факторами, позволяющими избежать преждевременной замены.

ТЕПЛОВЫЕ ХАРАКТЕРИСТИКИ

Зимой: средняя разница температур на входе и выходе = от 7 до 12°C

Летом: средняя разница температур на входе и выходе = от 7 до 16°C

ТЕХНИЧЕСКАЯ ПОДДЕРЖКА

Отправьте нам свой проект, и мы Поможем с поставкой:

  • Ваш климатический колодец
  • Счет количества
  • Тепловая энергия, сэкономленная зимой
  • Энергия охлаждения, сэкономленная летом

Свяжитесь с нами: tcbatiment. [email protected]

Свяжитесь с нашим отделом продаж

Язык

Английский

Геотермальные тепловые насосы | Министерство энергетики

Энергосбережение

Изображение

Геотермальные тепловые насосы (GHP), иногда называемые GeoExchange, геотермальные, геотермальные или водяные тепловые насосы, используются с конца 1940-х годов. В качестве обменной среды они используют относительно постоянную температуру земли вместо температуры наружного воздуха.

Хотя во многих частях страны наблюдаются сезонные экстремальные температуры — от палящего зноя летом до минусовых холодов зимой — в нескольких футах ниже поверхности земли температура земли остается относительно постоянной. В зависимости от широты температура земли колеблется от 45°F (7°C) до 75°F (21°C). Подобно пещере, эта температура земли теплее воздуха над ней зимой и холоднее воздуха летом. GHP использует эти более благоприятные температуры, чтобы стать высокоэффективным за счет обмена теплом с землей через наземный теплообменник.

Как и любой другой тепловой насос, геотермальные и водяные тепловые насосы могут нагревать, охлаждать и, если они оборудованы, снабжать дом горячей водой. Некоторые модели геотермальных систем доступны с двухскоростными компрессорами и регулируемыми вентиляторами для большего комфорта и экономии энергии. По сравнению с воздушными тепловыми насосами они тише, служат дольше, требуют минимального обслуживания и не зависят от температуры наружного воздуха.

Тепловой насос с двумя источниками тепла сочетает в себе воздушный тепловой насос и геотермальный тепловой насос. Эти приборы сочетают в себе лучшее из обеих систем. Тепловые насосы с двойным источником имеют более высокие рейтинги эффективности, чем агрегаты с воздушным источником, но не так эффективны, как геотермальные агрегаты. Основное преимущество систем с двумя источниками заключается в том, что их установка стоит намного дешевле, чем одиночная геотермальная установка, и работают почти так же хорошо.

Несмотря на то, что стоимость установки геотермальной системы может быть в несколько раз выше, чем у системы с воздушным источником той же мощности нагрева и охлаждения, дополнительные затраты могут окупиться за счет экономии энергии через 5–10 лет, в зависимости от стоимости энергия и доступные стимулы в вашем районе. Срок службы системы оценивается в 24 года для внутренних компонентов и более 50 лет для контура заземления. Ежегодно в США устанавливается около 50 000 геотермальных тепловых насосов. Для получения дополнительной информации посетите Международную ассоциацию геотермальных тепловых насосов.

URL видео

Посмотрите, как геотермальные тепловые насосы нагревают и охлаждают здания, концентрируя природное тепло, содержащееся в земле — чистом, надежном и возобновляемом источнике энергии.

Министерство энергетики США

Существует четыре основных типа систем контура заземления. Три из них — горизонтальная, вертикальная и пруд/озеро — представляют собой замкнутые системы. Четвертый тип системы — вариант с открытым контуром. Несколько факторов, таких как климат, почвенные условия, доступная земля и местные затраты на установку, определяют, какой из них лучше всего подходит для участка. Все эти подходы могут быть использованы для жилых и коммерческих зданий.

Замкнутые системы

В большинстве геотермальных тепловых насосов с замкнутым контуром раствор антифриза циркулирует по замкнутому контуру, обычно изготавливаемому из пластиковых труб высокой плотности, который закопан в землю или погружен в воду. Теплообменник передает тепло между хладагентом в тепловом насосе и раствором антифриза в замкнутом контуре.

Один тип системы с замкнутым контуром, называемый прямым обменом, не использует теплообменник, а вместо этого перекачивает хладагент по медным трубам, закопанным в землю в горизонтальной или вертикальной конфигурации. Для систем прямого обмена требуется более крупный компрессор, и они лучше всего работают на влажных почвах (иногда требуется дополнительное орошение, чтобы почва оставалась влажной), но вам следует избегать установки в почвах, вызывающих коррозию медных трубок. Поскольку в этих системах хладагент циркулирует по земле, местные экологические нормы могут запрещать их использование в некоторых местах.

Горизонтальный

Этот тип установки, как правило, наиболее экономичен для жилых помещений, особенно для нового строительства, где имеется достаточно земли. Для этого требуются траншеи глубиной не менее четырех футов. В наиболее распространенных схемах используются либо две трубы, одна из которых закопана на глубине шести футов, а другая — четыре фута, либо две трубы, расположенные бок о бок на высоте пяти футов в земле в траншее шириной два фута. Метод скручивания трубы Slinky™ позволяет разместить больше трубы в более короткой траншеи, что снижает затраты на установку и делает возможным горизонтальную установку в местах, недоступных при обычном горизонтальном применении.

Вертикальный

В больших коммерческих зданиях и школах часто используются вертикальные системы, потому что площадь земли, необходимая для горизонтальных петель, была бы непомерно высокой. Вертикальные петли также используются там, где почва слишком мелкая для рытья траншей, и они сводят к минимуму нарушение существующего ландшафта. Для вертикальной системы скважины (примерно четыре дюйма в диаметре) бурят на расстоянии около 20 футов друг от друга и глубиной от 100 до 400 футов. Две трубы, соединенные в нижней части U-образным изгибом, образующим петлю, вставляются в отверстие и заливаются цементным раствором для повышения производительности. Вертикальные контуры соединены горизонтальной трубой (т. е. коллектором), размещенной в траншеях, и соединены с тепловым насосом в здании.

Пруд/озеро

Если на участке есть достаточный водоем, это может быть самый дешевый вариант. Подводящая труба проходит под землей от здания к воде и скручивается в кольца на глубине не менее восьми футов под поверхностью, чтобы предотвратить замерзание. Змеевики следует размещать только в источнике воды, соответствующем минимальным требованиям к объему, глубине и качеству.

Разомкнутая система

В системе этого типа в качестве теплоносителя используется колодезная или поверхностная вода, которая циркулирует непосредственно в системе GHP. Пройдя через систему, вода возвращается в землю через колодец, подпиточный колодец или поверхностный сброс. Очевидно, что этот вариант практичен только там, где имеется достаточное количество относительно чистой воды и соблюдаются все местные нормы и правила, касающиеся сброса подземных вод.

Гибридные системы

Гибридные системы, использующие несколько различных геотермальных ресурсов или комбинацию геотермального ресурса с наружным воздухом (например, градирни), являются еще одним технологическим вариантом. Гибридные подходы особенно эффективны, когда потребности в охлаждении значительно превышают потребности в обогреве. Если позволяет местная геология, еще одним вариантом является «колодец стоячей колонны». В этом варианте разомкнутой системы бурят одну или несколько глубоких вертикальных скважин. Вода забирается снизу стоячей колонны и возвращается наверх. В периоды пикового нагрева и охлаждения система может сбрасывать часть возвратной воды, а не закачивать всю ее обратно, что приводит к притоку воды в колонну из окружающего водоносного горизонта.

Добавить комментарий

Ваш адрес email не будет опубликован. Обязательные поля помечены *